createdAt,value
2018-07-19T00:00:05.312Z,51.24
2018-07-19T00:00:31.473Z,51.72
2018-07-19T00:00:57.611Z,51.34
2018-07-19T00:01:23.749Z,51.24
2018-07-19T00:01:49.889Z,51.43
2018-07-19T00:02:16.035Z,51.43
2018-07-19T00:02:42.173Z,51.53
2018-07-19T00:03:08.310Z,51.05
2018-07-19T00:03:34.450Z,51.53
2018-07-19T00:04:00.591Z,51.34
2018-07-19T00:04:26.728Z,51.43
2018-07-19T00:04:52.873Z,51.24
2018-07-19T00:05:19.014Z,51.43
2018-07-19T00:05:45.151Z,51.43
2018-07-19T00:06:11.290Z,51.43
2018-07-19T00:06:37.429Z,51.53
2018-07-19T00:07:03.564Z,51.24
2018-07-19T00:07:29.705Z,51.05
2018-07-19T00:07:55.856Z,51.24
2018-07-19T00:08:22.025Z,50.85
2018-07-19T00:08:48.164Z,51.05
2018-07-19T00:09:14.335Z,51.34
2018-07-19T00:09:40.468Z,50.95
2018-07-19T00:10:06.627Z,51.34
2018-07-19T00:10:32.764Z,51.34
2018-07-19T00:10:58.901Z,51.24
2018-07-19T00:11:25.086Z,50.85
2018-07-19T00:11:51.229Z,50.85
2018-07-19T00:12:17.613Z,51.34
2018-07-19T00:12:43.758Z,51.53
2018-07-19T00:13:09.894Z,51.43
2018-07-19T00:13:36.062Z,51.24
2018-07-19T00:14:02.222Z,51.24
2018-07-19T00:14:28.361Z,50.85
2018-07-19T00:14:54.508Z,51.24
2018-07-19T00:15:20.662Z,51.34
2018-07-19T00:15:46.804Z,51.43
2018-07-19T00:16:12.959Z,51.24
2018-07-19T00:16:39.103Z,51.43
2018-07-19T00:17:05.274Z,51.24
2018-07-19T00:17:31.447Z,51.62
2018-07-19T00:17:57.601Z,51.53
2018-07-19T00:18:23.760Z,51.72
2018-07-19T00:18:49.905Z,51.34
2018-07-19T00:19:16.036Z,51.34
2018-07-19T00:19:42.174Z,51.34
2018-07-19T00:20:08.305Z,51.05
2018-07-19T00:20:34.445Z,50.95
2018-07-19T00:21:00.591Z,50.95
2018-07-19T00:21:26.750Z,51.14
2018-07-19T00:21:52.892Z,51.24
2018-07-19T00:22:19.029Z,50.95
2018-07-19T00:22:45.172Z,50.85
2018-07-19T00:23:11.311Z,51.24
2018-07-19T00:23:37.446Z,51.24
2018-07-19T00:24:03.624Z,50.95
2018-07-19T00:24:29.760Z,50.95
2018-07-19T00:24:55.904Z,50.57
2018-07-19T00:25:22.045Z,50.85
2018-07-19T00:25:48.183Z,50.47
2018-07-19T00:26:14.346Z,50.66
2018-07-19T00:26:40.469Z,50.47
2018-07-19T00:27:06.630Z,50.66
2018-07-19T00:27:32.768Z,50.88
2018-07-19T00:27:58.923Z,50.37
2018-07-19T00:28:25.090Z,50.88
2018-07-19T00:28:51.253Z,50.85
2018-07-19T00:29:17.385Z,50.76
2018-07-19T00:29:43.528Z,50.47
2018-07-19T00:30:09.663Z,50.57
2018-07-19T00:30:35.815Z,51.05
2018-07-19T00:31:01.968Z,50.76
2018-07-19T00:31:28.132Z,50.66
2018-07-19T00:31:54.260Z,50.66
2018-07-19T00:32:20.406Z,50.37
2018-07-19T00:32:46.544Z,50.66
2018-07-19T00:33:12.677Z,50.69
2018-07-19T00:33:38.814Z,50.66
2018-07-19T00:34:04.974Z,50.88
2018-07-19T00:34:31.115Z,50.78
2018-07-19T00:34:57.250Z,50.78
2018-07-19T00:35:23.409Z,50.88
2018-07-19T00:35:49.541Z,50.49
2018-07-19T00:36:15.686Z,50.4
2018-07-19T00:36:41.858Z,50.3
2018-07-19T00:37:07.995Z,50.4
2018-07-19T00:37:34.126Z,50.59
2018-07-19T00:38:00.264Z,50.59
2018-07-19T00:38:26.419Z,50.4
2018-07-19T00:38:52.557Z,50.4
2018-07-19T00:39:18.731Z,50.4
2018-07-19T00:39:44.920Z,50.4
2018-07-19T00:40:11.071Z,50.69
2018-07-19T00:40:37.210Z,50.4
2018-07-19T00:41:03.531Z,50.21
2018-07-19T00:41:29.643Z,50.49
2018-07-19T00:41:55.855Z,50.59
2018-07-19T00:42:21.995Z,50.4
2018-07-19T00:42:48.133Z,50.59
2018-07-19T00:43:14.268Z,50.4
2018-07-19T00:43:40.430Z,50.4
2018-07-19T00:44:06.570Z,50.88
2018-07-19T00:44:32.707Z,50.88
2018-07-19T00:44:58.872Z,50.59
2018-07-19T00:45:25.013Z,50.49
2018-07-19T00:45:51.152Z,50.88
2018-07-19T00:46:17.294Z,50.59
2018-07-19T00:46:43.427Z,50.78
2018-07-19T00:47:09.569Z,50.59
2018-07-19T00:47:35.701Z,50.78
2018-07-19T00:48:01.842Z,50.4
2018-07-19T00:48:27.980Z,50.69
2018-07-19T00:48:54.112Z,50.88
2018-07-19T00:49:20.261Z,50.69
2018-07-19T00:49:46.395Z,50.49
2018-07-19T00:50:12.531Z,50.59
2018-07-19T00:50:38.671Z,50.49
2018-07-19T00:51:04.837Z,50.88
2018-07-19T00:51:30.962Z,50.78
2018-07-19T00:51:57.714Z,50.85
2018-07-19T00:52:23.849Z,51.05
2018-07-19T00:52:49.989Z,50.98
2018-07-19T00:53:16.128Z,51.24
2018-07-19T00:53:42.261Z,50.98
2018-07-19T00:54:08.399Z,51.17
2018-07-19T00:54:34.537Z,51.14
2018-07-19T00:55:00.675Z,51.05
2018-07-19T00:55:26.815Z,50.98
2018-07-19T00:55:52.947Z,50.88
2018-07-19T00:56:19.118Z,51.07
2018-07-19T00:56:45.281Z,51.07
2018-07-19T00:57:11.439Z,50.98
2018-07-19T00:57:37.574Z,50.69
2018-07-19T00:58:03.716Z,51.07
2018-07-19T00:58:29.863Z,50.78
2018-07-19T00:58:56.007Z,51.07
2018-07-19T00:59:22.170Z,50.85
2018-07-19T00:59:48.329Z,50.76
2018-07-19T01:00:14.474Z,50.98
2018-07-19T01:00:40.611Z,51.07
2018-07-19T01:01:06.775Z,50.69
2018-07-19T01:01:32.912Z,50.88
2018-07-19T01:01:59.056Z,51.07
2018-07-19T01:02:25.213Z,50.59
2018-07-19T01:02:51.348Z,50.98
2018-07-19T01:03:17.490Z,50.59
2018-07-19T01:03:43.629Z,50.49
2018-07-19T01:04:09.761Z,50.78
2018-07-19T01:04:35.924Z,50.49
2018-07-19T01:05:02.062Z,50.88
2018-07-19T01:05:28.198Z,50.49
2018-07-19T01:05:54.357Z,50.57
2018-07-19T01:06:20.494Z,50.76
2018-07-19T01:06:46.634Z,51.14
2018-07-19T01:07:12.770Z,50.95
2018-07-19T01:07:38.911Z,51.43
2018-07-19T01:08:05.050Z,51.34
2018-07-19T01:08:31.194Z,51.05
2018-07-19T01:08:57.325Z,50.95
2018-07-19T01:09:23.466Z,50.57
2018-07-19T01:09:49.602Z,50.47
2018-07-19T01:10:15.748Z,50.76
2018-07-19T01:10:41.878Z,50.76
2018-07-19T01:11:08.028Z,50.66
2018-07-19T01:11:34.164Z,51.05
2018-07-19T01:12:00.331Z,50.95
2018-07-19T01:12:26.471Z,51.14
2018-07-19T01:12:52.604Z,50.85
2018-07-19T01:13:18.744Z,50.85
2018-07-19T01:13:44.891Z,50.57
2018-07-19T01:14:11.033Z,50.76
2018-07-19T01:14:37.173Z,50.69
2018-07-19T01:15:03.314Z,50.47
2018-07-19T01:15:29.453Z,50.57
2018-07-19T01:15:55.613Z,50.85
2018-07-19T01:16:21.777Z,50.95
2018-07-19T01:16:47.946Z,50.57
2018-07-19T01:17:14.083Z,50.57
2018-07-19T01:17:40.242Z,50.76
2018-07-19T01:18:06.378Z,50.66
2018-07-19T01:18:32.538Z,50.95
2018-07-19T01:18:58.675Z,50.57
2018-07-19T01:19:24.851Z,50.76
2018-07-19T01:19:50.952Z,51.05
2018-07-19T01:20:17.098Z,51.05
2018-07-19T01:20:43.255Z,50.95
2018-07-19T01:21:09.451Z,51.62
2018-07-19T01:21:35.564Z,51.43
2018-07-19T01:22:01.705Z,51.14
2018-07-19T01:22:27.867Z,51.82
2018-07-19T01:22:54.004Z,51.43
2018-07-19T01:23:20.147Z,51.62
2018-07-19T01:23:46.342Z,51.43
2018-07-19T01:24:12.468Z,51.24
2018-07-19T01:24:38.603Z,51.43
2018-07-19T01:25:04.758Z,51.14
2018-07-19T01:25:30.888Z,51.62
2018-07-19T01:25:57.026Z,51.34
2018-07-19T01:26:23.158Z,51.43
2018-07-19T01:26:49.342Z,51.24
2018-07-19T01:27:15.504Z,51.14
2018-07-19T01:27:41.646Z,51.72
2018-07-19T01:28:07.780Z,51.14
2018-07-19T01:28:33.925Z,51.21
2018-07-19T01:29:00.056Z,51.21
2018-07-19T01:29:26.203Z,51.24
2018-07-19T01:29:52.415Z,51.21
2018-07-19T01:30:18.568Z,51.34
2018-07-19T01:30:44.714Z,51.82
2018-07-19T01:31:10.855Z,51.62
2018-07-19T01:31:36.996Z,51.72
2018-07-19T01:32:03.134Z,51.62
2018-07-19T01:32:29.273Z,51.34
2018-07-19T01:32:55.436Z,51.82
2018-07-19T01:33:21.578Z,51.24
2018-07-19T01:33:47.732Z,51.24
2018-07-19T01:34:13.874Z,51.14
2018-07-19T01:34:40.012Z,51.43
2018-07-19T01:35:06.157Z,51.43
2018-07-19T01:35:32.291Z,51.72
2018-07-19T01:35:58.427Z,51.21
2018-07-19T01:36:24.576Z,51.6
2018-07-19T01:36:50.715Z,51.5
2018-07-19T01:37:16.890Z,52.56
2018-07-19T01:37:43.068Z,52.27
2018-07-19T01:38:09.204Z,52.27
2018-07-19T01:38:35.339Z,52.37
2018-07-19T01:39:01.486Z,52.18
2018-07-19T01:39:27.620Z,52.37
2018-07-19T01:39:53.759Z,52.08
2018-07-19T01:40:19.930Z,52.18
2018-07-19T01:40:46.066Z,52.08
2018-07-19T01:41:12.202Z,52.18
2018-07-19T01:41:38.341Z,52.56
2018-07-19T01:42:04.534Z,52.56
2018-07-19T01:42:30.645Z,51.89
2018-07-19T01:42:56.808Z,52.56
2018-07-19T01:43:22.944Z,52.47
2018-07-19T01:43:49.102Z,52.47
2018-07-19T01:44:15.241Z,52.27
2018-07-19T01:44:41.373Z,52.27
2018-07-19T01:45:07.520Z,52.18
2018-07-19T01:45:33.658Z,52.08
2018-07-19T01:45:59.798Z,52.37
2018-07-19T01:46:25.938Z,52.18
2018-07-19T01:46:52.071Z,52.27
2018-07-19T01:47:18.216Z,52.18
2018-07-19T01:47:44.350Z,52.18
2018-07-19T01:48:10.523Z,52.08
2018-07-19T01:48:36.652Z,52.18
2018-07-19T01:49:02.824Z,52.27
2018-07-19T01:49:28.962Z,52.56
2018-07-19T01:49:55.121Z,52.56
2018-07-19T01:50:21.262Z,52.75
2018-07-19T01:50:47.395Z,52.95
2018-07-19T01:51:13.533Z,52.95
2018-07-19T01:51:39.693Z,52.85
2018-07-19T01:52:05.833Z,53.05
2018-07-19T01:52:31.967Z,52.95
2018-07-19T01:52:58.126Z,52.95
2018-07-19T01:53:24.265Z,53.05
2018-07-19T01:53:50.429Z,53.05
2018-07-19T01:54:16.568Z,53.05
2018-07-19T01:54:42.708Z,52.75
2018-07-19T01:55:08.844Z,53.05
2018-07-19T01:55:34.998Z,52.95
2018-07-19T01:56:01.138Z,53.23
2018-07-19T01:56:27.294Z,52.95
2018-07-19T01:56:53.464Z,52.95
2018-07-19T01:57:19.601Z,52.85
2018-07-19T01:57:45.745Z,52.75
2018-07-19T01:58:11.882Z,52.95
2018-07-19T01:58:38.027Z,52.75
2018-07-19T01:59:04.164Z,53.14
2018-07-19T01:59:30.301Z,52.95
2018-07-19T01:59:56.510Z,53.05
2018-07-19T02:00:22.593Z,52.75
2018-07-19T02:00:48.734Z,53.14
2018-07-19T02:01:14.866Z,53.05
2018-07-19T02:01:41.008Z,53.05
2018-07-19T02:02:07.145Z,52.75
2018-07-19T02:02:33.284Z,53.05
2018-07-19T02:02:59.416Z,52.75
2018-07-19T02:03:25.566Z,52.75
2018-07-19T02:03:51.699Z,52.85
2018-07-19T02:04:17.838Z,53.23
2018-07-19T02:04:43.972Z,52.92
2018-07-19T02:05:10.117Z,52.73
2018-07-19T02:05:36.255Z,52.85
2018-07-19T02:06:02.399Z,53.14
2018-07-19T02:06:28.549Z,52.63
2018-07-19T02:06:54.683Z,52.95
2018-07-19T02:07:20.833Z,53.62
2018-07-19T02:07:46.981Z,53.72
2018-07-19T02:08:13.129Z,53.69
2018-07-19T02:08:39.260Z,53.72
2018-07-19T02:09:05.408Z,53.62
2018-07-19T02:09:31.540Z,53.23
2018-07-19T02:09:57.674Z,53.69
2018-07-19T02:10:23.843Z,53.59
2018-07-19T02:10:49.986Z,53.4
2018-07-19T02:11:16.147Z,53.4
2018-07-19T02:11:42.291Z,53.59
2018-07-19T02:12:08.448Z,53.5
2018-07-19T02:12:34.581Z,53.62
2018-07-19T02:13:00.724Z,53.5
2018-07-19T02:13:26.858Z,53.59
2018-07-19T02:13:53.000Z,53.59
2018-07-19T02:14:19.145Z,53.53
2018-07-19T02:14:45.281Z,53.4
2018-07-19T02:15:11.430Z,53.59
2018-07-19T02:15:37.563Z,53.5
2018-07-19T02:16:03.691Z,53.5
2018-07-19T02:16:29.831Z,53.59
2018-07-19T02:16:55.998Z,53.53
2018-07-19T02:17:22.147Z,53.53
2018-07-19T02:17:48.292Z,53.53
2018-07-19T02:18:14.426Z,53.53
2018-07-19T02:18:40.561Z,53.43
2018-07-19T02:19:06.698Z,53.53
2018-07-19T02:19:32.843Z,53.72
2018-07-19T02:19:58.976Z,53.72
2018-07-19T02:20:25.117Z,53.23
2018-07-19T02:20:51.255Z,53.81
2018-07-19T02:21:17.391Z,52.75
2018-07-19T02:21:43.530Z,53.23
2018-07-19T02:22:09.662Z,53.02
2018-07-19T02:22:35.797Z,53.53
2018-07-19T02:23:01.933Z,53.21
2018-07-19T02:23:28.070Z,53.21
2018-07-19T02:23:54.206Z,53.31
2018-07-19T02:24:20.369Z,53.98
2018-07-19T02:24:46.516Z,53.88
2018-07-19T02:25:12.651Z,53.78
2018-07-19T02:25:38.798Z,53.59
2018-07-19T02:26:04.935Z,53.88
2018-07-19T02:26:31.075Z,53.59
2018-07-19T02:26:57.222Z,53.88
2018-07-19T02:27:23.361Z,53.5
2018-07-19T02:27:49.531Z,53.88
2018-07-19T02:28:15.665Z,54.46
2018-07-19T02:28:41.793Z,54.46
2018-07-19T02:29:07.942Z,54.27
2018-07-19T02:29:34.076Z,53.98
2018-07-19T02:30:00.234Z,54.36
2018-07-19T02:30:26.392Z,54.17
2018-07-19T02:30:52.534Z,53.78
2018-07-19T02:31:18.664Z,54.56
2018-07-19T02:31:44.798Z,54.56
2018-07-19T02:32:10.935Z,53.88
2018-07-19T02:32:37.079Z,54.75
2018-07-19T02:33:03.215Z,54.56
2018-07-19T02:33:29.352Z,54.36
2018-07-19T02:33:55.501Z,54.36
2018-07-19T02:34:21.625Z,53.98
2018-07-19T02:34:47.769Z,53.98
2018-07-19T02:35:13.902Z,54.17
2018-07-19T02:35:40.041Z,54.27
2018-07-19T02:36:06.192Z,54.27
2018-07-19T02:36:32.333Z,54.08
2018-07-19T02:36:58.471Z,54.36
2018-07-19T02:37:24.606Z,54.65
2018-07-19T02:37:50.746Z,54.85
2018-07-19T02:38:16.914Z,54.65
2018-07-19T02:38:43.049Z,54.46
2018-07-19T02:39:09.189Z,54.82
2018-07-19T02:39:35.325Z,54.82
2018-07-19T02:40:01.473Z,54.82
2018-07-19T02:40:27.606Z,54.91
2018-07-19T02:40:53.755Z,54.82
2018-07-19T02:41:19.885Z,54.46
2018-07-19T02:41:46.029Z,54.27
2018-07-19T02:42:12.167Z,54.75
2018-07-19T02:42:38.305Z,54.56
2018-07-19T02:43:04.445Z,54.65
2018-07-19T02:43:30.581Z,54.53
2018-07-19T02:43:56.833Z,54.36
2018-07-19T02:44:22.897Z,54.46
2018-07-19T02:44:49.029Z,54.63
2018-07-19T02:45:15.170Z,54.53
2018-07-19T02:45:41.345Z,54.53
2018-07-19T02:46:07.501Z,54.82
2018-07-19T02:46:33.841Z,54.65
2018-07-19T02:46:59.987Z,54.82
2018-07-19T02:47:26.130Z,54.85
2018-07-19T02:47:52.291Z,55.01
2018-07-19T02:48:18.444Z,54.85
2018-07-19T02:48:44.610Z,54.94
2018-07-19T02:49:10.757Z,54.65
2018-07-19T02:49:36.906Z,54.94
2018-07-19T02:50:03.041Z,54.46
2018-07-19T02:50:29.263Z,54.75
2018-07-19T02:50:55.360Z,54.85
2018-07-19T02:51:21.518Z,54.85
2018-07-19T02:51:47.656Z,54.85
2018-07-19T02:52:13.829Z,54.82
2018-07-19T02:52:39.968Z,55.11
2018-07-19T02:53:06.106Z,55.11
2018-07-19T02:53:32.240Z,54.72
2018-07-19T02:53:58.389Z,54.91
2018-07-19T02:54:24.547Z,54.91
2018-07-19T02:54:50.735Z,55.11
2018-07-19T02:55:16.875Z,54.82
2018-07-19T02:55:43.013Z,54.94
2018-07-19T02:56:09.148Z,54.82
2018-07-19T02:56:35.282Z,54.82
2018-07-19T02:57:01.435Z,54.72
2018-07-19T02:57:28.194Z,55.11
2018-07-19T02:57:54.344Z,55.3
2018-07-19T02:58:20.479Z,55.4
2018-07-19T02:58:46.645Z,55.3
2018-07-19T02:59:12.785Z,55.4
2018-07-19T02:59:38.926Z,55.2
2018-07-19T03:00:05.089Z,55.4
2018-07-19T03:00:31.227Z,55.2
2018-07-19T03:00:57.367Z,55.3
2018-07-19T03:01:23.507Z,55.68
2018-07-19T03:01:49.644Z,55.49
2018-07-19T03:02:15.787Z,55.88
2018-07-19T03:02:41.925Z,56.07
2018-07-19T03:03:08.100Z,55.78
2018-07-19T03:03:34.242Z,55.88
2018-07-19T03:04:00.374Z,55.94
2018-07-19T03:04:26.570Z,56.07
2018-07-19T03:04:52.715Z,56.07
2018-07-19T03:05:18.900Z,56.23
2018-07-19T03:05:45.070Z,55.88
2018-07-19T03:06:11.257Z,55.98
2018-07-19T03:06:37.468Z,56.14
2018-07-19T03:07:03.607Z,56.33
2018-07-19T03:07:29.789Z,56.26
2018-07-19T03:07:56.035Z,56.14
2018-07-19T03:08:22.274Z,56.23
2018-07-19T03:08:48.448Z,56.71
2018-07-19T03:09:14.649Z,56.52
2018-07-19T03:09:40.785Z,57
2018-07-19T03:10:06.926Z,56.71
2018-07-19T03:10:33.068Z,56.91
2018-07-19T03:10:59.205Z,56.71
2018-07-19T03:11:25.348Z,56.71
2018-07-19T03:11:51.689Z,56.62
2018-07-19T03:12:17.844Z,56.71
2018-07-19T03:12:44.006Z,57.2
2018-07-19T03:13:10.142Z,57.1
2018-07-19T03:13:36.285Z,57.39
2018-07-19T03:14:02.422Z,57.36
2018-07-19T03:14:28.554Z,57.48
2018-07-19T03:14:54.697Z,57.55
2018-07-19T03:15:20.857Z,57.36
2018-07-19T03:15:46.999Z,57.75
2018-07-19T03:16:13.143Z,58.13
2018-07-19T03:16:39.272Z,57.58
2018-07-19T03:17:05.413Z,57.65
2018-07-19T03:17:31.547Z,57.2
2018-07-19T03:17:57.680Z,57.17
2018-07-19T03:18:23.817Z,58.22
2018-07-19T03:18:49.953Z,58.22
2018-07-19T03:19:16.099Z,58.22
2018-07-19T03:19:42.285Z,57.93
2018-07-19T03:20:08.427Z,58.03
2018-07-19T03:20:34.564Z,57.93
2018-07-19T03:21:00.703Z,57.75
2018-07-19T03:21:26.835Z,57.75
2018-07-19T03:21:53.015Z,57.93
2018-07-19T03:22:19.205Z,57.84
2018-07-19T03:22:45.352Z,57.93
2018-07-19T03:23:11.486Z,57.93
2018-07-19T03:23:37.629Z,58.13
2018-07-19T03:24:03.765Z,58.61
2018-07-19T03:24:29.927Z,58.42
2018-07-19T03:24:56.072Z,57.93
2018-07-19T03:25:22.208Z,58.22
2018-07-19T03:25:48.338Z,57.65
2018-07-19T03:26:14.483Z,58.22
2018-07-19T03:26:40.642Z,58.22
2018-07-19T03:27:06.771Z,58.42
2018-07-19T03:27:32.948Z,58.51
2018-07-19T03:27:59.084Z,58.51
2018-07-19T03:28:25.230Z,58.32
2018-07-19T03:28:51.409Z,58.32
2018-07-19T03:29:17.546Z,58.51
2018-07-19T03:29:43.681Z,58.32
2018-07-19T03:30:09.819Z,58.51
2018-07-19T03:30:35.981Z,58.8
2018-07-19T03:31:02.198Z,58.7
2018-07-19T03:31:28.335Z,59.09
2018-07-19T03:31:54.500Z,58.8
2018-07-19T03:32:20.679Z,58.51
2018-07-19T03:32:46.820Z,58.42
2018-07-19T03:33:12.955Z,58.89
2018-07-19T03:33:39.088Z,58.8
2018-07-19T03:34:05.230Z,58.61
2018-07-19T03:34:31.371Z,58.32
2018-07-19T03:34:57.529Z,58.61
2018-07-19T03:35:23.694Z,58.61
2018-07-19T03:35:49.835Z,58.42
2018-07-19T03:36:15.967Z,58.51
2018-07-19T03:36:42.102Z,58.7
2018-07-19T03:37:08.241Z,58.8
2018-07-19T03:37:34.386Z,58.99
2018-07-19T03:38:00.528Z,58.58
2018-07-19T03:38:26.662Z,59.06
2018-07-19T03:38:52.802Z,58.77
2018-07-19T03:39:18.945Z,58.87
2018-07-19T03:39:45.100Z,59.16
2018-07-19T03:40:11.321Z,59.06
2018-07-19T03:40:37.399Z,59.06
2018-07-19T03:41:03.539Z,59.34
2018-07-19T03:41:29.681Z,59.16
2018-07-19T03:41:55.862Z,59.83
2018-07-19T03:42:22.002Z,59.25
2018-07-19T03:42:48.161Z,59.64
2018-07-19T03:43:14.294Z,59.73
2018-07-19T03:43:40.427Z,59.54
2018-07-19T03:44:06.569Z,59.34
2018-07-19T03:44:32.702Z,59.44
2018-07-19T03:44:58.878Z,59.44
2018-07-19T03:45:25.021Z,59.73
2018-07-19T03:45:51.168Z,59.25
2018-07-19T03:46:17.319Z,59.92
2018-07-19T03:46:43.461Z,59.92
2018-07-19T03:47:09.604Z,59.92
2018-07-19T03:47:35.764Z,60.02
2018-07-19T03:48:01.905Z,59.92
2018-07-19T03:48:28.040Z,59.92
2018-07-19T03:48:54.196Z,59.83
2018-07-19T03:49:20.335Z,60.11
2018-07-19T03:49:46.473Z,59.64
2018-07-19T03:50:12.611Z,60.02
2018-07-19T03:50:38.849Z,60.02
2018-07-19T03:51:04.900Z,59.83
2018-07-19T03:51:31.041Z,60.21
2018-07-19T03:51:57.189Z,59.92
2018-07-19T03:52:23.325Z,59.44
2018-07-19T03:52:49.489Z,59.64
2018-07-19T03:53:15.628Z,59.92
2018-07-19T03:53:41.800Z,59.92
2018-07-19T03:54:07.939Z,59.54
2018-07-19T03:54:34.358Z,59.73
2018-07-19T03:55:00.518Z,59.64
2018-07-19T03:55:26.657Z,59.44
2018-07-19T03:55:52.823Z,59.54
2018-07-19T03:56:18.956Z,59.47
2018-07-19T03:56:45.099Z,59.34
2018-07-19T03:57:11.239Z,59.16
2018-07-19T03:57:37.398Z,59.16
2018-07-19T03:58:03.529Z,59.83
2018-07-19T03:58:29.670Z,59.64
2018-07-19T03:58:55.806Z,59.66
2018-07-19T03:59:21.974Z,59.54
2018-07-19T03:59:48.113Z,59.25
2018-07-19T04:00:14.248Z,59.64
2018-07-19T04:00:40.387Z,59.73
2018-07-19T04:01:06.531Z,59.73
2018-07-19T04:01:32.672Z,59.44
2018-07-19T04:01:58.949Z,59.44
2018-07-19T04:02:24.965Z,59.64
2018-07-19T04:02:51.232Z,59.44
2018-07-19T04:03:17.356Z,59.54
2018-07-19T04:03:43.500Z,59.73
2018-07-19T04:04:09.629Z,59.83
2018-07-19T04:04:35.769Z,59.92
2018-07-19T04:05:01.911Z,59.92
2018-07-19T04:05:28.044Z,59.83
2018-07-19T04:05:54.187Z,59.83
2018-07-19T04:06:20.367Z,59.86
2018-07-19T04:06:46.530Z,59.25
2018-07-19T04:07:12.666Z,59.54
2018-07-19T04:07:38.799Z,59.44
2018-07-19T04:08:04.936Z,59.73
2018-07-19T04:08:31.081Z,59.44
2018-07-19T04:08:57.242Z,59.57
2018-07-19T04:09:23.382Z,59.54
2018-07-19T04:09:49.521Z,59.44
2018-07-19T04:10:15.663Z,59.44
2018-07-19T04:10:41.801Z,59.54
2018-07-19T04:11:07.940Z,59.25
2018-07-19T04:11:34.071Z,59.73
2018-07-19T04:12:00.212Z,59.64
2018-07-19T04:12:26.355Z,59.54
2018-07-19T04:12:52.489Z,59.64
2018-07-19T04:13:18.625Z,59.44
2018-07-19T04:13:44.765Z,59.83
2018-07-19T04:14:10.902Z,59.25
2018-07-19T04:14:37.068Z,59.44
2018-07-19T04:15:03.195Z,59.34
2018-07-19T04:15:29.329Z,59.83
2018-07-19T04:15:55.473Z,59.83
2018-07-19T04:16:21.607Z,60.02
2018-07-19T04:16:47.747Z,59.83
2018-07-19T04:17:14.051Z,60.31
2018-07-19T04:17:40.067Z,60.5
2018-07-19T04:18:06.194Z,59.54
2018-07-19T04:18:32.339Z,59.64
2018-07-19T04:18:58.503Z,60.21
2018-07-19T04:19:24.637Z,60.69
2018-07-19T04:19:50.774Z,60.4
2018-07-19T04:20:16.917Z,60.5
2018-07-19T04:20:43.064Z,60.31
2018-07-19T04:21:09.203Z,60.6
2018-07-19T04:21:35.340Z,60.6
2018-07-19T04:22:01.482Z,60.6
2018-07-19T04:22:27.625Z,60.31
2018-07-19T04:22:53.771Z,60.31
2018-07-19T04:23:19.930Z,60.11
2018-07-19T04:23:46.067Z,60.4
2018-07-19T04:24:12.198Z,60.4
2018-07-19T04:24:38.338Z,60.31
2018-07-19T04:25:04.507Z,60.69
2018-07-19T04:25:30.659Z,60.02
2018-07-19T04:25:56.793Z,59.92
2018-07-19T04:26:22.934Z,59.64
2018-07-19T04:26:49.105Z,60.02
2018-07-19T04:27:15.265Z,59.83
2018-07-19T04:27:41.423Z,59.83
2018-07-19T04:28:07.561Z,59.83
2018-07-19T04:28:33.720Z,59.73
2018-07-19T04:28:59.866Z,60.11
2018-07-19T04:29:26.035Z,60.11
2018-07-19T04:29:52.169Z,60.02
2018-07-19T04:30:18.303Z,59.83
2018-07-19T04:30:44.463Z,59.64
2018-07-19T04:31:10.923Z,60.21
2018-07-19T04:31:37.037Z,59.83
2018-07-19T04:32:03.208Z,59.92
2018-07-19T04:32:29.344Z,59.92
2018-07-19T04:32:55.485Z,60.11
2018-07-19T04:33:21.630Z,59.83
2018-07-19T04:33:47.787Z,60.21
2018-07-19T04:34:13.927Z,60.31
2018-07-19T04:34:40.113Z,60.31
2018-07-19T04:35:06.249Z,60.4
2018-07-19T04:35:32.392Z,59.64
2018-07-19T04:35:58.532Z,59.73
2018-07-19T04:36:24.672Z,60.05
2018-07-19T04:36:50.841Z,59.38
2018-07-19T04:37:17.005Z,59.73
2018-07-19T04:37:43.148Z,59.47
2018-07-19T04:38:09.332Z,59.47
2018-07-19T04:38:35.467Z,59.47
2018-07-19T04:39:01.614Z,59.66
2018-07-19T04:39:27.747Z,59.86
2018-07-19T04:39:53.879Z,59.09
2018-07-19T04:40:20.026Z,58.7
2018-07-19T04:40:46.154Z,58.99
2018-07-19T04:41:12.295Z,58.8
2018-07-19T04:41:38.430Z,58.99
2018-07-19T04:42:04.567Z,58.99
2018-07-19T04:42:30.722Z,59.09
2018-07-19T04:42:56.863Z,58.7
2018-07-19T04:43:23.005Z,58.7
2018-07-19T04:43:49.169Z,58.42
2018-07-19T04:44:15.330Z,58.89
2018-07-19T04:44:41.469Z,58.42
2018-07-19T04:45:07.615Z,58.8
2018-07-19T04:45:33.749Z,59.09
2018-07-19T04:45:59.884Z,58.89
2018-07-19T04:46:26.032Z,58.7
2018-07-19T04:46:52.157Z,59.09
2018-07-19T04:47:18.298Z,58.89
2018-07-19T04:47:44.432Z,58.89
2018-07-19T04:48:10.618Z,58.89
2018-07-19T04:48:36.792Z,59.09
2018-07-19T04:49:02.876Z,58.8
2018-07-19T04:49:29.017Z,58.61
2018-07-19T04:49:55.157Z,58.89
2018-07-19T04:50:21.305Z,59.09
2018-07-19T04:50:47.430Z,59.19
2018-07-19T04:51:13.650Z,59.09
2018-07-19T04:51:39.733Z,58.99
2018-07-19T04:52:05.869Z,59.12
2018-07-19T04:52:32.045Z,58.92
2018-07-19T04:52:58.199Z,58.54
2018-07-19T04:53:24.350Z,58.45
2018-07-19T04:53:50.497Z,58.35
2018-07-19T04:54:16.637Z,57.77
2018-07-19T04:54:42.852Z,58.25
2018-07-19T04:55:08.928Z,57.77
2018-07-19T04:55:35.067Z,58.25
2018-07-19T04:56:01.201Z,57.1
2018-07-19T04:56:27.364Z,57.99
2018-07-19T04:56:53.511Z,57.22
2018-07-19T04:57:19.657Z,57.03
2018-07-19T04:57:45.799Z,56.87
2018-07-19T04:58:11.937Z,56.77
2018-07-19T04:58:38.078Z,55.9
2018-07-19T04:59:04.222Z,55.71
2018-07-19T04:59:30.363Z,55.74
2018-07-19T04:59:56.554Z,55.07
2018-07-19T05:00:22.713Z,54.58
2018-07-19T05:00:48.861Z,54.58
2018-07-19T05:01:15.000Z,54
2018-07-19T05:01:41.210Z,53.74
2018-07-19T05:02:07.343Z,53.36
2018-07-19T05:02:33.432Z,53.36
2018-07-19T05:02:59.571Z,53.17
2018-07-19T05:03:25.714Z,52.69
2018-07-19T05:03:51.847Z,52.97
2018-07-19T05:04:17.991Z,53.27
2018-07-19T05:04:44.130Z,52.11
2018-07-19T05:05:10.267Z,52.49
2018-07-19T05:05:36.407Z,52.23
2018-07-19T05:06:02.573Z,52.52
2018-07-19T05:06:28.719Z,52.23
2018-07-19T05:06:54.860Z,52.2
2018-07-19T05:07:20.995Z,52.11
2018-07-19T05:07:47.131Z,52.2
2018-07-19T05:08:13.276Z,52.49
2018-07-19T05:08:39.410Z,52.4
2018-07-19T05:09:05.550Z,52.4
2018-07-19T05:09:31.729Z,52.49
2018-07-19T05:09:57.849Z,52.2
2018-07-19T05:10:24.004Z,52.4
2018-07-19T05:10:50.141Z,52.2
2018-07-19T05:11:16.298Z,52.4
2018-07-19T05:11:42.435Z,52.59
2018-07-19T05:12:08.582Z,52.11
2018-07-19T05:12:34.720Z,52.49
2018-07-19T05:13:00.951Z,52.59
2018-07-19T05:13:27.074Z,52.69
2018-07-19T05:13:53.239Z,52.49
2018-07-19T05:14:19.383Z,52.3
2018-07-19T05:14:45.524Z,52.97
2018-07-19T05:15:11.670Z,52.87
2018-07-19T05:15:37.804Z,53.27
2018-07-19T05:16:03.945Z,53.43
2018-07-19T05:16:30.086Z,53.05
2018-07-19T05:16:56.227Z,53.27
2018-07-19T05:17:22.380Z,53.14
2018-07-19T05:17:48.524Z,53.43
2018-07-19T05:18:14.658Z,53.23
2018-07-19T05:18:40.799Z,53.91
2018-07-19T05:19:06.933Z,53.62
2018-07-19T05:19:33.072Z,53.91
2018-07-19T05:19:59.205Z,53.23
2018-07-19T05:20:25.364Z,53.53
2018-07-19T05:20:51.505Z,53.81
2018-07-19T05:21:17.644Z,53.81
2018-07-19T05:21:43.775Z,53.91
2018-07-19T05:22:09.919Z,53.62
2018-07-19T05:22:36.054Z,54.1
2018-07-19T05:23:02.199Z,54.3
2018-07-19T05:23:28.346Z,54.56
2018-07-19T05:23:54.476Z,54.87
2018-07-19T05:24:20.622Z,54.78
2018-07-19T05:24:46.775Z,54.68
2018-07-19T05:25:12.904Z,54.87
2018-07-19T05:25:39.050Z,54.68
2018-07-19T05:26:05.191Z,54.58
2018-07-19T05:26:31.330Z,54.68
2018-07-19T05:26:57.472Z,54.78
2018-07-19T05:27:23.609Z,54.78
2018-07-19T05:27:49.746Z,54.68
2018-07-19T05:28:15.887Z,54.78
2018-07-19T05:28:42.022Z,54.2
2018-07-19T05:29:08.163Z,54.87
2018-07-19T05:29:34.300Z,54.87
2018-07-19T05:30:00.460Z,53.98
2018-07-19T05:30:26.596Z,54.87
2018-07-19T05:30:52.742Z,54.49
2018-07-19T05:31:18.878Z,54.87
2018-07-19T05:31:45.035Z,54.65
2018-07-19T05:32:11.177Z,54.56
2018-07-19T05:32:37.321Z,54.85
2018-07-19T05:33:03.461Z,54.27
2018-07-19T05:33:29.625Z,54.17
2018-07-19T05:33:55.763Z,54.65
2018-07-19T05:34:21.932Z,54.85
2018-07-19T05:34:48.091Z,54.27
2018-07-19T05:35:14.266Z,54.78
2018-07-19T05:35:40.399Z,54.68
2018-07-19T05:36:06.544Z,54.85
2018-07-19T05:36:32.691Z,54.75
2018-07-19T05:36:58.822Z,54.85
2018-07-19T05:37:24.957Z,54.75
2018-07-19T05:37:51.098Z,54.46